Time,TemperatureF,DewpointF,PressureIn,WindDirection,WindDirectionDegrees,WindSpeedMPH,WindSpeedGustMPH,Humidity,HourlyPrecipIn,Conditions,Clouds,dailyrainin,SoftwareType,DateUTC
2013-04-10 00:03:00,46.0,12.0,-100.00,NW,322,5.0,9.0,25,-99.99,,,-99.99,,2013-04-10 00:03:00,
2013-04-10 00:11:00,46.0,12.0,-100.00,NW,322,5.0,9.0,25,-99.99,,,-99.99,,2013-04-10 00:11:00,
2013-04-10 00:32:00,47.0,10.0,-100.00,NNW,336,3.0,6.0,22,-99.99,,,-99.99,,2013-04-10 00:32:00,
2013-04-10 00:42:00,46.0,11.0,-100.00,NNW,330,6.0,11.0,24,-99.99,,,-99.99,,2013-04-10 00:42:00,
2013-04-10 00:52:00,47.0,9.0,-100.00,NW,322,4.0,6.0,21,-99.99,,,-99.99,,2013-04-10 00:52:00,
2013-04-10 01:02:00,46.0,9.0,-100.00,North,6,4.0,8.0,22,-99.99,,,-99.99,,2013-04-10 01:02:00,
2013-04-10 01:12:00,46.0,8.0,-100.00,North,349,5.0,12.0,21,-99.99,,,-99.99,,2013-04-10 01:12:00,
2013-04-10 01:22:00,45.0,6.0,-100.00,NW,316,5.0,10.0,20,-99.99,,,-99.99,,2013-04-10 01:22:00,
2013-04-10 01:32:00,45.0,9.0,-100.00,NNW,328,4.0,7.0,23,-99.99,,,-99.99,,2013-04-10 01:32:00,
2013-04-10 01:42:00,45.0,9.0,-100.00,NNW,328,4.0,7.0,23,-99.99,,,-99.99,,2013-04-10 01:42:00,
2013-04-10 01:52:00,45.0,9.0,-100.00,NNW,328,4.0,7.0,23,-99.99,,,-99.99,,2013-04-10 01:52:00,
2013-04-10 02:22:00,44.0,11.0,-100.00,NNW,339,5.0,8.0,26,-99.99,,,-99.99,,2013-04-10 02:22:00,
2013-04-10 02:32:00,44.0,11.0,-100.00,NNW,339,5.0,8.0,26,-99.99,,,-99.99,,2013-04-10 02:32:00,
2013-04-10 02:42:00,43.0,10.0,-100.00,NW,318,5.0,9.0,25,-99.99,,,-99.99,,2013-04-10 02:42:00,
2013-04-10 02:52:00,43.0,10.0,-100.00,NW,318,5.0,9.0,25,-99.99,,,-99.99,,2013-04-10 02:52:00,
2013-04-10 03:02:00,43.0,10.0,-100.00,NW,318,5.0,9.0,25,-99.99,,,-99.99,,2013-04-10 03:02:00,
2013-04-10 03:12:00,42.0,10.0,-100.00,North,10,4.0,6.0,26,-99.99,,,-99.99,,2013-04-10 03:12:00,
2013-04-10 03:22:00,41.0,13.0,-100.00,East,92,3.0,5.0,31,-99.99,,,-99.99,,2013-04-10 03:22:00,
2013-04-10 03:32:00,41.0,13.0,-100.00,East,92,3.0,5.0,31,-99.99,,,-99.99,,2013-04-10 03:32:00,
2013-04-10 03:42:00,41.0,12.0,-100.00,NE,45,4.0,7.0,30,-99.99,,,-99.99,,2013-04-10 03:42:00,
2013-04-10 03:43:00,41.0,13.0,-100.00,East,92,3.0,5.0,31,-99.99,,,-99.99,,2013-04-10 03:43:00,
2013-04-10 03:52:00,41.0,13.0,-100.00,East,92,3.0,5.0,31,-99.99,,,-99.99,,2013-04-10 03:52:00,
2013-04-10 04:13:00,41.0,12.0,-100.00,NE,45,4.0,7.0,30,-99.99,,,-99.99,,2013-04-10 04:13:00,
2013-04-10 04:23:00,41.0,12.0,-100.00,NE,45,4.0,7.0,30,-99.99,,,-99.99,,2013-04-10 04:23:00,
2013-04-10 04:33:00,41.0,12.0,-100.00,NE,45,4.0,7.0,30,-99.99,,,-99.99,,2013-04-10 04:33:00,
2013-04-10 04:53:00,40.0,11.0,-100.00,NE,51,5.0,7.0,30,-99.99,,,-99.99,,2013-04-10 04:53:00,
2013-04-10 05:02:00,40.0,11.0,-100.00,NE,51,5.0,7.0,30,-99.99,,,-99.99,,2013-04-10 05:02:00,
2013-04-10 05:12:00,42.0,12.0,-100.00,NNE,31,5.0,9.0,29,-99.99,,,-99.99,,2013-04-10 05:12:00,
2013-04-10 05:22:00,42.0,13.0,-100.00,NE,35,7.0,13.0,30,-99.99,,,-99.99,,2013-04-10 05:22:00,
2013-04-10 05:32:00,41.0,14.0,-100.00,NNE,13,4.0,7.0,33,-99.99,,,-99.99,,2013-04-10 05:32:00,
2013-04-10 05:42:00,42.0,15.0,-100.00,NE,38,8.0,18.0,33,-99.99,,,-99.99,,2013-04-10 05:42:00,
2013-04-10 05:52:00,42.0,15.0,-100.00,NE,47,13.0,22.0,33,-99.99,,,-99.99,,2013-04-10 05:52:00,
2013-04-10 06:02:00,41.0,15.0,-100.00,NNE,32,4.0,8.0,35,-99.99,,,-99.99,,2013-04-10 06:02:00,
2013-04-10 06:12:00,41.0,17.0,-100.00,North,8,4.0,11.0,37,-99.99,,,-99.99,,2013-04-10 06:12:00,
2013-04-10 06:22:00,41.0,17.0,-100.00,NNW,335,4.0,6.0,38,-99.99,,,-99.99,,2013-04-10 06:22:00,
2013-04-10 06:32:00,41.0,17.0,-100.00,NNW,335,4.0,6.0,38,-99.99,,,-99.99,,2013-04-10 06:32:00,
2013-04-10 06:42:00,41.0,17.0,-100.00,NNE,18,6.0,13.0,38,-99.99,,,-99.99,,2013-04-10 06:42:00,
2013-04-10 06:52:00,41.0,18.0,-100.00,NNE,31,2.0,4.0,39,-99.99,,,-99.99,,2013-04-10 06:52:00,
2013-04-10 07:02:00,41.0,18.0,-100.00,North,359,4.0,10.0,39,-99.99,,,-99.99,,2013-04-10 07:02:00,
2013-04-10 07:12:00,41.0,18.0,-100.00,NNE,13,3.0,7.0,39,-99.99,,,-99.99,,2013-04-10 07:12:00,
2013-04-10 07:22:00,40.0,17.0,-100.00,North,0,3.0,7.0,39,-99.99,,,-99.99,,2013-04-10 07:22:00,
2013-04-10 07:32:00,41.0,18.0,-100.00,NE,55,5.0,7.0,39,-99.99,,,-99.99,,2013-04-10 07:32:00,
2013-04-10 07:42:00,40.0,18.0,-100.00,North,352,2.0,6.0,41,-99.99,,,-99.99,,2013-04-10 07:42:00,
2013-04-10 07:52:00,40.0,18.0,-100.00,North,352,2.0,6.0,41,-99.99,,,-99.99,,2013-04-10 07:52:00,
2013-04-10 08:02:00,41.0,18.0,-100.00,NNE,25,7.0,14.0,39,-99.99,,,-99.99,,2013-04-10 08:02:00,
2013-04-10 08:11:00,41.0,18.0,-100.00,NNE,25,7.0,14.0,39,-99.99,,,-99.99,,2013-04-10 08:11:00,
2013-04-10 08:22:00,40.0,18.0,-100.00,North,356,3.0,7.0,40,-99.99,,,-99.99,,2013-04-10 08:22:00,
2013-04-10 08:32:00,40.0,19.0,-100.00,NE,55,0.0,2.0,43,-99.99,,,-99.99,,2013-04-10 08:32:00,
2013-04-10 08:42:00,40.0,18.0,-100.00,East,97,3.0,5.0,41,-99.99,,,-99.99,,2013-04-10 08:42:00,
2013-04-10 08:52:00,40.0,19.0,-100.00,East,89,3.0,6.0,42,-99.99,,,-99.99,,2013-04-10 08:52:00,
2013-04-10 09:02:00,40.0,18.0,-100.00,East,90,2.0,6.0,41,-99.99,,,-99.99,,2013-04-10 09:02:00,
2013-04-10 09:12:00,40.0,18.0,-100.00,East,90,2.0,6.0,41,-99.99,,,-99.99,,2013-04-10 09:12:00,
2013-04-10 09:22:00,40.0,18.0,-100.00,ENE,69,6.0,9.0,41,-99.99,,,-99.99,,2013-04-10 09:22:00,
2013-04-10 09:32:00,40.0,18.0,-100.00,ENE,69,6.0,9.0,41,-99.99,,,-99.99,,2013-04-10 09:32:00,
2013-04-10 09:42:00,40.0,18.0,-100.00,ENE,69,6.0,9.0,41,-99.99,,,-99.99,,2013-04-10 09:42:00,
2013-04-10 10:03:00,40.0,18.0,-100.00,SE,140,7.0,15.0,40,-99.99,,,-99.99,,2013-04-10 10:03:00,
2013-04-10 10:12:00,40.0,18.0,-100.00,South,191,4.0,10.0,41,-99.99,,,-99.99,,2013-04-10 10:12:00,
2013-04-10 10:23:00,40.0,18.0,-100.00,South,191,4.0,10.0,41,-99.99,,,-99.99,,2013-04-10 10:23:00,
2013-04-10 10:33:00,38.0,20.0,-100.00,North,-999,0.0,0.0,47,-99.99,,,-99.99,,2013-04-10 10:33:00,
2013-04-10 10:42:00,36.0,19.0,-100.00,SE,127,1.0,3.0,49,-99.99,,,-99.99,,2013-04-10 10:42:00,
2013-04-10 10:52:00,36.0,21.0,-100.00,SSW,210,3.0,7.0,53,-99.99,,,-99.99,,2013-04-10 10:52:00,
2013-04-10 11:02:00,38.0,18.0,-100.00,SSE,151,1.0,5.0,43,-99.99,,,-99.99,,2013-04-10 11:02:00,
2013-04-10 11:12:00,38.0,18.0,-100.00,SSE,151,1.0,5.0,43,-99.99,,,-99.99,,2013-04-10 11:12:00,
2013-04-10 11:22:00,40.0,16.0,-100.00,SSE,155,4.0,6.0,37,-99.99,,,-99.99,,2013-04-10 11:22:00,
2013-04-10 11:32:00,41.0,16.0,-100.00,SSW,202,5.0,8.0,36,-99.99,,,-99.99,,2013-04-10 11:32:00,
2013-04-10 11:42:00,41.0,16.0,-100.00,SSW,202,5.0,8.0,36,-99.99,,,-99.99,,2013-04-10 11:42:00,
2013-04-10 11:52:00,41.0,16.0,-100.00,SSW,202,5.0,8.0,36,-99.99,,,-99.99,,2013-04-10 11:52:00,
2013-04-10 12:02:00,37.0,18.0,-100.00,SE,134,2.0,5.0,45,-99.99,,,-99.99,,2013-04-10 12:02:00,
2013-04-10 12:12:00,37.0,17.0,-100.00,South,169,2.0,4.0,44,-99.99,,,-99.99,,2013-04-10 12:12:00,
2013-04-10 12:22:00,37.0,17.0,-100.00,SE,133,2.0,3.0,44,-99.99,,,-99.99,,2013-04-10 12:22:00,
2013-04-10 12:32:00,37.0,19.0,-100.00,North,-999,0.0,0.0,47,-99.99,,,-99.99,,2013-04-10 12:32:00,
2013-04-10 12:42:00,36.0,18.0,-100.00,North,-999,0.0,0.0,47,-99.99,,,-99.99,,2013-04-10 12:42:00,
2013-04-10 12:52:00,36.0,20.0,-100.00,South,174,3.0,5.0,52,-99.99,,,-99.99,,2013-04-10 12:52:00,
2013-04-10 13:02:00,37.0,18.0,-100.00,SSE,161,1.0,3.0,45,-99.99,,,-99.99,,2013-04-10 13:02:00,
2013-04-10 13:12:00,39.0,18.0,-100.00,SSE,150,3.0,5.0,42,-99.99,,,-99.99,,2013-04-10 13:12:00,
2013-04-10 13:23:00,36.0,19.0,-100.00,ESE,102,3.0,5.0,50,-99.99,,,-99.99,,2013-04-10 13:23:00,
2013-04-10 13:32:00,37.0,19.0,-100.00,ESE,117,3.0,5.0,48,-99.99,,,-99.99,,2013-04-10 13:32:00,
2013-04-10 13:42:00,37.0,21.0,-100.00,ESE,106,1.0,4.0,51,-99.99,,,-99.99,,2013-04-10 13:42:00,
2013-04-10 13:52:00,36.0,19.0,-100.00,East,93,3.0,5.0,50,-99.99,,,-99.99,,2013-04-10 13:52:00,
2013-04-10 14:02:00,37.0,19.0,-100.00,SE,136,2.0,3.0,47,-99.99,,,-99.99,,2013-04-10 14:02:00,
2013-04-10 14:12:00,36.0,18.0,-100.00,SSE,152,2.0,3.0,48,-99.99,,,-99.99,,2013-04-10 14:12:00,
2013-04-10 14:22:00,36.0,18.0,-100.00,SSE,152,2.0,3.0,48,-99.99,,,-99.99,,2013-04-10 14:22:00,
2013-04-10 14:32:00,36.0,18.0,-100.00,SSE,152,2.0,3.0,48,-99.99,,,-99.99,,2013-04-10 14:32:00,
2013-04-10 14:42:00,36.0,20.0,-100.00,SE,131,2.0,3.0,52,-99.99,,,-99.99,,2013-04-10 14:42:00,
2013-04-10 14:52:00,36.0,21.0,-100.00,ESE,119,0.0,1.0,54,-99.99,,,-99.99,,2013-04-10 14:52:00,
2013-04-10 15:02:00,37.0,19.0,-100.00,SSE,165,3.0,5.0,48,-99.99,,,-99.99,,2013-04-10 15:02:00,
2013-04-10 15:12:00,37.0,19.0,-100.00,SSE,165,3.0,5.0,48,-99.99,,,-99.99,,2013-04-10 15:12:00,
2013-04-10 15:22:00,37.0,19.0,-100.00,SSE,165,3.0,5.0,48,-99.99,,,-99.99,,2013-04-10 15:22:00,
2013-04-10 15:32:00,37.0,19.0,-100.00,SSE,165,3.0,5.0,48,-99.99,,,-99.99,,2013-04-10 15:32:00,
2013-04-10 15:52:00,37.0,23.0,-100.00,East,82,3.0,4.0,56,-99.99,,,-99.99,,2013-04-10 15:52:00,
2013-04-10 16:02:00,39.0,23.0,-100.00,ENE,64,3.0,4.0,52,-99.99,,,-99.99,,2013-04-10 16:02:00,
2013-04-10 16:12:00,39.0,23.0,-100.00,ENE,64,3.0,4.0,52,-99.99,,,-99.99,,2013-04-10 16:12:00,
2013-04-10 16:23:00,41.0,24.0,-100.00,North,356,2.0,5.0,50,-99.99,,,-99.99,,2013-04-10 16:23:00,
2013-04-10 16:32:00,41.0,24.0,-100.00,North,356,2.0,5.0,50,-99.99,,,-99.99,,2013-04-10 16:32:00,
2013-04-10 16:43:00,44.0,27.0,-100.00,North,-999,0.0,0.0,51,-99.99,,,-99.99,,2013-04-10 16:43:00,
2013-04-10 16:52:00,44.0,28.0,-100.00,North,-999,0.0,0.0,53,-99.99,,,-99.99,,2013-04-10 16:52:00,
2013-04-10 17:02:00,44.0,28.0,-100.00,North,-999,0.0,0.0,52,-99.99,,,-99.99,,2013-04-10 17:02:00,
2013-04-10 17:12:00,44.0,28.0,-100.00,North,-999,0.0,0.0,52,-99.99,,,-99.99,,2013-04-10 17:12:00,
2013-04-10 17:22:00,44.0,28.0,-100.00,North,-999,0.0,0.0,52,-99.99,,,-99.99,,2013-04-10 17:22:00,
2013-04-10 17:33:00,44.0,28.0,-100.00,North,-999,0.0,0.0,53,-99.99,,,-99.99,,2013-04-10 17:33:00,
2013-04-10 17:42:00,43.0,27.0,-100.00,North,-999,0.0,0.0,53,-99.99,,,-99.99,,2013-04-10 17:42:00,
2013-04-10 17:52:00,44.0,26.0,-100.00,North,-999,0.0,0.0,49,-99.99,,,-99.99,,2013-04-10 17:52:00,
2013-04-10 18:02:00,44.0,26.0,-100.00,North,-999,0.0,0.0,49,-99.99,,,-99.99,,2013-04-10 18:02:00,
2013-04-10 18:12:00,45.0,25.0,-100.00,North,-999,0.0,0.0,45,-99.99,,,-99.99,,2013-04-10 18:12:00,
2013-04-10 18:22:00,49.0,21.0,-100.00,North,-999,0.0,0.0,33,-99.99,,,-99.99,,2013-04-10 18:22:00,
2013-04-10 18:32:00,47.0,22.0,-100.00,North,-999,0.0,0.0,37,-99.99,,,-99.99,,2013-04-10 18:32:00,
2013-04-10 18:42:00,48.0,20.0,-100.00,North,-999,0.0,0.0,33,-99.99,,,-99.99,,2013-04-10 18:42:00,
2013-04-10 18:52:00,48.0,20.0,-100.00,North,-999,0.0,0.0,33,-99.99,,,-99.99,,2013-04-10 18:52:00,
2013-04-10 19:02:00,48.0,20.0,-100.00,North,-999,0.0,0.0,33,-99.99,,,-99.99,,2013-04-10 19:02:00,
2013-04-10 19:53:00,51.0,24.0,-100.00,WSW,247,5.0,7.0,34,-99.99,,,-99.99,,2013-04-10 19:53:00,
2013-04-10 20:02:00,51.0,22.0,-100.00,WSW,237,5.0,7.0,32,-99.99,,,-99.99,,2013-04-10 20:02:00,
2013-04-10 20:12:00,51.0,22.0,-100.00,WSW,241,4.0,6.0,32,-99.99,,,-99.99,,2013-04-10 20:12:00,
2013-04-10 20:22:00,53.0,22.0,-100.00,West,274,3.0,5.0,30,-99.99,,,-99.99,,2013-04-10 20:22:00,
2013-04-10 20:32:00,53.0,22.0,-100.00,West,274,3.0,5.0,30,-99.99,,,-99.99,,2013-04-10 20:32:00,
2013-04-10 20:42:00,54.0,25.0,-100.00,West,281,2.0,4.0,32,-99.99,,,-99.99,,2013-04-10 20:42:00,
2013-04-10 20:52:00,55.0,23.0,-100.00,West,267,2.0,4.0,28,-99.99,,,-99.99,,2013-04-10 20:52:00,
2013-04-10 21:02:00,55.0,23.0,-100.00,West,275,3.0,5.0,28,-99.99,,,-99.99,,2013-04-10 21:02:00,
2013-04-10 21:12:00,55.0,23.0,-100.00,West,275,3.0,5.0,28,-99.99,,,-99.99,,2013-04-10 21:12:00,
2013-04-10 21:22:00,57.0,24.0,-100.00,WSW,258,3.0,6.0,28,-99.99,,,-99.99,,2013-04-10 21:22:00,
2013-04-10 21:32:00,57.0,24.0,-100.00,WSW,258,3.0,6.0,28,-99.99,,,-99.99,,2013-04-10 21:32:00,
2013-04-10 21:42:00,57.0,24.0,-100.00,SW,226,4.0,7.0,28,-99.99,,,-99.99,,2013-04-10 21:42:00,
2013-04-10 21:53:00,56.0,24.0,-100.00,SSW,212,4.0,7.0,29,-99.99,,,-99.99,,2013-04-10 21:53:00,
2013-04-10 22:03:00,57.0,26.0,-100.00,SSW,202,4.0,5.0,30,-99.99,,,-99.99,,2013-04-10 22:03:00,
2013-04-10 22:12:00,59.0,28.0,-100.00,NW,305,3.0,4.0,30,-99.99,,,-99.99,,2013-04-10 22:12:00,
2013-04-10 22:22:00,59.0,28.0,-100.00,NW,305,3.0,4.0,30,-99.99,,,-99.99,,2013-04-10 22:22:00,
2013-04-10 22:33:00,59.0,28.0,-100.00,NW,305,3.0,4.0,30,-99.99,,,-99.99,,2013-04-10 22:33:00,
2013-04-10 22:42:00,57.0,27.0,-100.00,SW,236,4.0,7.0,31,-99.99,,,-99.99,,2013-04-10 22:42:00,
2013-04-10 22:53:00,57.0,27.0,-100.00,WSW,243,6.0,11.0,31,-99.99,,,-99.99,,2013-04-10 22:53:00,
2013-04-10 23:02:00,57.0,27.0,-100.00,SW,223,5.0,8.0,31,-99.99,,,-99.99,,2013-04-10 23:02:00,
2013-04-10 23:12:00,58.0,29.0,-100.00,SW,215,5.0,6.0,33,-99.99,,,-99.99,,2013-04-10 23:12:00,
2013-04-10 23:22:00,59.0,28.0,-100.00,SW,227,5.0,7.0,31,-99.99,,,-99.99,,2013-04-10 23:22:00,
2013-04-10 23:32:00,59.0,28.0,-100.00,SW,227,5.0,7.0,31,-99.99,,,-99.99,,2013-04-10 23:32:00,
2013-04-10 23:42:00,59.0,28.0,-100.00,SW,227,5.0,7.0,31,-99.99,,,-99.99,,2013-04-10 23:42:00,
2013-04-10 23:52:00,61.0,26.0,-100.00,North,-999,0.0,0.0,26,-99.99,,,-99.99,,2013-04-10 23:52:00,